Flight Track Log - Related Links

Times and Time Zones

All times are in EDT time to prevent confusion due to time zone crossing. See the EJM410 flight status page for this flight to view local times or setup timezone preferences in your user account.

Time Position Orientation Groundspeed Altitude Reporting Facility
EDT Latitude Longitude Course Direction KTS MPH feet Rate Location/Type
Fri 08:42:30 PM 44.2969 -74.1283 172° South 389 448 10,200  Level Boston Center
Fri 08:43:30 PM 44.2117 -74.1114 172° South 365 420 12,100 2,700 Climbing Boston Center
Fri 08:44:30 PM 44.0953 -74.0878 172° South 376 433 15,600 3,150 Climbing Boston Center
Fri 08:45:30 PM 43.9853 -74.0644 171° South 397 457 18,400 1,700 Climbing Boston Center
Fri 08:46:30 PM 43.8628 -74.0353 170° South 423 487 19,000 300 Climbing Boston Center
Fri 08:47:30 PM 43.7442 -74.0122 172° South 433 498 19,000  Level Boston Center
Fri 08:48:30 PM 43.6175 -73.9886 172° South 433 498 19,000  Level Boston Center
Fri 08:49:30 PM 43.4989 -73.9600 170° South 433 498 19,000  Level Boston Center
Fri 08:50:30 PM 43.3825 -73.9369 172° South 428 493 19,000 -50 Level Boston Center
Fri 08:51:30 PM 43.2642 -73.9114 171° South 428 493 18,900 -850 Descending Boston Center
Fri 08:52:30 PM 43.1519 -73.8886 172° South 423 487 17,300 -1,800 Descending Boston Center
Fri 08:53:30 PM 43.0375 -73.8661 172° South 416 479 15,300 -1,650 Descending Boston Center
Fri 08:54:30 PM 42.9419 -73.8469 172° South 400 460 14,000 -650 Descending Boston Center
Fri 08:55:30 PM 42.8381 -73.8275 172° South 394 453 14,000  Level Boston Center
Fri 08:56:30 PM 42.7297 -73.8081 172° South 389 448 14,000  Level Boston Center
Fri 08:57:30 PM 42.6214 -73.8086 180° South 389 448 14,000  Level Boston Center
Fri 08:58:30 PM 42.5089 -73.8089 180° South 395 455 14,000  Level Boston Center
Fri 08:59:30 PM 42.4067 -73.8094 180° South 407 468 14,000  Level Boston Center
Fri 09:00:30 PM 42.2900 -73.8125 181° South 402 463 14,000  Level Boston Center
Fri 09:01:30 PM 42.1736 -73.7792 168° South 397 457 14,000  Level Boston Center
Fri 09:02:30 PM 42.0803 -73.7381 162° South 392 451 14,000 -350 Level Boston Center
Fri 09:03:30 PM 41.9828 -73.6969 163° South 380 437 13,300 -1,045 Descending Boston Center
Fri 09:04:42 PM 41.8833 -73.6531 162° South 352 405 11,700 -1,455 Descending Boston Center
Fri 09:05:42 PM 41.7919 -73.6094 160° South 300 345 10,100 -1,350 Descending Boston Center
Fri 09:06:42 PM 41.7172 -73.5775 162° South 290 334 9,000 -1,150 Descending Boston Center
Fri 09:07:42 PM 41.6511 -73.5431 159° South 284 327 7,800 -1,222 Descending Boston Center
Fri 09:09:24 PM 41.5333 -73.4833 159° South 265 305 5,700 -1,365 Descending New York TRACON
Fri 09:10:29 PM 41.4667 -73.4167 143° Southeast 247 284 4,000 -857 Descending New York TRACON
Fri 09:11:23 PM 41.4167 -73.3667 143° Southeast 213 245 4,000 -263 Level New York TRACON
Fri 09:12:23 PM 41.3833 -73.3167 132° Southeast 212 244 3,500 -500 Descending New York TRACON
Fri 09:13:23 PM 41.3500 -73.2667 132° Southeast 200 230 3,000 -250 Descending New York TRACON
Fri 09:14:23 PM 41.3167 -73.2167 132° Southeast 180 207 3,000  Level New York TRACON
Fri 09:15:23 PM 41.2833 -73.1667 132° Southeast 184 212 3,000  Level New York TRACON
Fri 09:16:24 PM 41.3000 -73.1167 66° East 163 188 3,000 -238 Level New York TRACON
Fri 09:17:29 PM 41.3500 -73.1167 360° North 151 174 2,500 -462 Descending New York TRACON

Login

Don't have an account? Register now (free) for customized features, flight alerts, and more!